Prairie City, Iowa
Current Conditions -  °F | °C
As of 4:35 AM on Thursday 23 Oct 2014 (Local Time) from KTNU Reporting Station
Overcast Overcast  
Wind Chill: 50°   Ceiling: 7500
Heat Index: 50°   Visibility: 10mi
Dew Point: 46°   Wind: 9mph
Humidity: 87%   Direction: 150°SSE
Pressure: 30.07"   Gusts: NA
Location:  41.6°N, 93.24°W
Report Text: KTNU 230935Z AUTO 15008KT 10SM FEW060 BKN075 OVC110 10/08 A3007 RMK AO2
Loading
Personal Weather Stations






























Interactive Weather Map
Tropical Storm Tracking
New forecast layout! Learn more

10-Day Weather Forecast

Advertisements
Track Severe Weather on mobile